sensor_id;sensor_type;location;lat;lon;timestamp;temperature;humidity
13462;DHT22;6803;45.264;5.468;2023-04-03T00:00:14;7.90;99.90
13462;DHT22;6803;45.264;5.468;2023-04-03T00:02:45;7.90;99.90
13462;DHT22;6803;45.264;5.468;2023-04-03T00:05:17;7.90;99.90
13462;DHT22;6803;45.264;5.468;2023-04-03T00:07:47;7.90;99.90
13462;DHT22;6803;45.264;5.468;2023-04-03T00:10:19;7.80;99.90
13462;DHT22;6803;45.264;5.468;2023-04-03T00:12:50;7.90;99.90
13462;DHT22;6803;45.264;5.468;2023-04-03T00:15:21;7.80;99.90
13462;DHT22;6803;45.264;5.468;2023-04-03T00:17:51;7.80;99.90
13462;DHT22;6803;45.264;5.468;2023-04-03T00:20:22;7.80;99.90
13462;DHT22;6803;45.264;5.468;2023-04-03T00:22:53;7.70;99.90
13462;DHT22;6803;45.264;5.468;2023-04-03T00:25:24;7.70;99.90
13462;DHT22;6803;45.264;5.468;2023-04-03T00:27:54;7.70;99.90
13462;DHT22;6803;45.264;5.468;2023-04-03T00:30:26;7.70;99.90
13462;DHT22;6803;45.264;5.468;2023-04-03T00:32:56;7.70;99.90
13462;DHT22;6803;45.264;5.468;2023-04-03T00:35:28;7.70;99.90
13462;DHT22;6803;45.264;5.468;2023-04-03T00:37:58;7.80;99.90
13462;DHT22;6803;45.264;5.468;2023-04-03T00:40:33;7.80;99.90
13462;DHT22;6803;45.264;5.468;2023-04-03T00:43:10;7.80;99.90
13462;DHT22;6803;45.264;5.468;2023-04-03T00:45:43;7.80;99.90
13462;DHT22;6803;45.264;5.468;2023-04-03T00:48:17;7.80;99.90
13462;DHT22;6803;45.264;5.468;2023-04-03T00:50:49;7.70;99.90
13462;DHT22;6803;45.264;5.468;2023-04-03T00:53:23;7.70;99.90
13462;DHT22;6803;45.264;5.468;2023-04-03T00:55:56;7.80;99.90
13462;DHT22;6803;45.264;5.468;2023-04-03T00:58:32;7.70;99.90
13462;DHT22;6803;45.264;5.468;2023-04-03T01:01:06;7.80;99.90
13462;DHT22;6803;45.264;5.468;2023-04-03T01:03:38;7.70;99.90
13462;DHT22;6803;45.264;5.468;2023-04-03T01:06:09;7.70;99.90
13462;DHT22;6803;45.264;5.468;2023-04-03T01:08:39;7.70;99.90
13462;DHT22;6803;45.264;5.468;2023-04-03T01:11:10;7.70;99.90
13462;DHT22;6803;45.264;5.468;2023-04-03T01:13:41;7.70;99.90
13462;DHT22;6803;45.264;5.468;2023-04-03T01:16:12;7.60;99.90
13462;DHT22;6803;45.264;5.468;2023-04-03T01:18:43;7.60;99.90
13462;DHT22;6803;45.264;5.468;2023-04-03T01:24:37;7.70;99.90
13462;DHT22;6803;45.264;5.468;2023-04-03T01:27:10;7.70;99.90
13462;DHT22;6803;45.264;5.468;2023-04-03T01:29:42;7.70;99.90
13462;DHT22;6803;45.264;5.468;2023-04-03T01:32:16;7.70;99.90
13462;DHT22;6803;45.264;5.468;2023-04-03T01:34:46;7.70;99.90
13462;DHT22;6803;45.264;5.468;2023-04-03T01:37:17;7.60;99.90
13462;DHT22;6803;45.264;5.468;2023-04-03T01:39:48;7.70;99.90
13462;DHT22;6803;45.264;5.468;2023-04-03T01:42:18;7.60;99.90
13462;DHT22;6803;45.264;5.468;2023-04-03T01:44:49;7.60;99.90
13462;DHT22;6803;45.264;5.468;2023-04-03T01:47:20;7.70;99.90
13462;DHT22;6803;45.264;5.468;2023-04-03T01:49:51;7.60;99.90
13462;DHT22;6803;45.264;5.468;2023-04-03T01:52:22;7.60;99.90
13462;DHT22;6803;45.264;5.468;2023-04-03T01:54:53;7.60;99.90
13462;DHT22;6803;45.264;5.468;2023-04-03T01:57:23;7.60;99.90
13462;DHT22;6803;45.264;5.468;2023-04-03T01:59:54;7.60;99.90
13462;DHT22;6803;45.264;5.468;2023-04-03T02:02:25;7.60;99.90
13462;DHT22;6803;45.264;5.468;2023-04-03T02:04:56;7.60;99.90
13462;DHT22;6803;45.264;5.468;2023-04-03T02:07:26;7.60;99.90
13462;DHT22;6803;45.264;5.468;2023-04-03T02:09:57;7.60;99.90
13462;DHT22;6803;45.264;5.468;2023-04-03T02:12:27;7.60;99.90
13462;DHT22;6803;45.264;5.468;2023-04-03T02:14:58;7.60;99.90
13462;DHT22;6803;45.264;5.468;2023-04-03T02:17:30;7.60;99.90
13462;DHT22;6803;45.264;5.468;2023-04-03T02:20:00;7.60;99.90
13462;DHT22;6803;45.264;5.468;2023-04-03T02:22:32;7.60;99.90
13462;DHT22;6803;45.264;5.468;2023-04-03T02:25:03;7.60;99.90
13462;DHT22;6803;45.264;5.468;2023-04-03T02:27:34;7.60;99.90
13462;DHT22;6803;45.264;5.468;2023-04-03T02:30:07;7.50;99.90
13462;DHT22;6803;45.264;5.468;2023-04-03T02:32:40;7.60;99.90
13462;DHT22;6803;45.264;5.468;2023-04-03T02:35:11;7.60;99.90
13462;DHT22;6803;45.264;5.468;2023-04-03T02:37:42;7.60;99.90
13462;DHT22;6803;45.264;5.468;2023-04-03T02:40:13;7.60;99.90
13462;DHT22;6803;45.264;5.468;2023-04-03T02:42:44;7.60;99.90
13462;DHT22;6803;45.264;5.468;2023-04-03T02:45:15;7.60;99.90
13462;DHT22;6803;45.264;5.468;2023-04-03T02:47:46;7.60;99.90
13462;DHT22;6803;45.264;5.468;2023-04-03T02:50:17;7.60;99.90
13462;DHT22;6803;45.264;5.468;2023-04-03T02:52:47;7.60;99.90
13462;DHT22;6803;45.264;5.468;2023-04-03T02:55:18;7.50;99.90
13462;DHT22;6803;45.264;5.468;2023-04-03T02:57:49;7.50;99.90
13462;DHT22;6803;45.264;5.468;2023-04-03T03:00:21;7.50;99.90
13462;DHT22;6803;45.264;5.468;2023-04-03T03:02:52;7.50;99.90
13462;DHT22;6803;45.264;5.468;2023-04-03T03:05:22;7.50;99.90
13462;DHT22;6803;45.264;5.468;2023-04-03T03:07:53;7.50;99.90
13462;DHT22;6803;45.264;5.468;2023-04-03T03:10:24;7.50;99.90
13462;DHT22;6803;45.264;5.468;2023-04-03T03:12:55;7.50;99.90
13462;DHT22;6803;45.264;5.468;2023-04-03T03:15:26;7.50;99.90
13462;DHT22;6803;45.264;5.468;2023-04-03T03:17:56;7.50;99.90
13462;DHT22;6803;45.264;5.468;2023-04-03T03:20:27;7.50;99.90
13462;DHT22;6803;45.264;5.468;2023-04-03T03:22:58;7.50;99.90
13462;DHT22;6803;45.264;5.468;2023-04-03T03:25:29;7.50;99.90
13462;DHT22;6803;45.264;5.468;2023-04-03T03:27:59;7.40;99.90
13462;DHT22;6803;45.264;5.468;2023-04-03T03:30:31;7.40;99.90
13462;DHT22;6803;45.264;5.468;2023-04-03T03:33:02;7.50;99.90
13462;DHT22;6803;45.264;5.468;2023-04-03T03:35:33;7.50;99.90
13462;DHT22;6803;45.264;5.468;2023-04-03T03:38:04;7.60;99.90
13462;DHT22;6803;45.264;5.468;2023-04-03T03:40:35;7.50;99.90
13462;DHT22;6803;45.264;5.468;2023-04-03T03:43:06;7.50;99.90
13462;DHT22;6803;45.264;5.468;2023-04-03T03:45:37;7.50;99.90
13462;DHT22;6803;45.264;5.468;2023-04-03T03:48:07;7.50;99.90
13462;DHT22;6803;45.264;5.468;2023-04-03T03:50:39;7.50;99.90
13462;DHT22;6803;45.264;5.468;2023-04-03T03:53:10;7.50;99.90
13462;DHT22;6803;45.264;5.468;2023-04-03T03:55:40;7.50;99.90
13462;DHT22;6803;45.264;5.468;2023-04-03T03:58:11;7.50;99.90
13462;DHT22;6803;45.264;5.468;2023-04-03T04:00:42;7.60;99.90
13462;DHT22;6803;45.264;5.468;2023-04-03T04:03:13;7.60;99.90
13462;DHT22;6803;45.264;5.468;2023-04-03T04:05:44;7.60;99.90
13462;DHT22;6803;45.264;5.468;2023-04-03T04:08:14;7.60;99.90
13462;DHT22;6803;45.264;5.468;2023-04-03T04:10:45;7.60;99.90
13462;DHT22;6803;45.264;5.468;2023-04-03T04:13:16;7.50;99.90
13462;DHT22;6803;45.264;5.468;2023-04-03T04:15:47;7.50;99.90
13462;DHT22;6803;45.264;5.468;2023-04-03T04:18:17;7.50;99.90
13462;DHT22;6803;45.264;5.468;2023-04-03T04:20:49;7.50;99.90
13462;DHT22;6803;45.264;5.468;2023-04-03T04:23:20;7.50;99.90
13462;DHT22;6803;45.264;5.468;2023-04-03T04:25:51;7.50;99.90
13462;DHT22;6803;45.264;5.468;2023-04-03T04:28:22;7.60;99.90
13462;DHT22;6803;45.264;5.468;2023-04-03T04:30:53;7.50;99.90
13462;DHT22;6803;45.264;5.468;2023-04-03T04:33:23;7.60;99.90
13462;DHT22;6803;45.264;5.468;2023-04-03T04:35:54;7.50;99.90
13462;DHT22;6803;45.264;5.468;2023-04-03T04:38:25;7.50;99.90
13462;DHT22;6803;45.264;5.468;2023-04-03T04:40:56;7.50;99.90
13462;DHT22;6803;45.264;5.468;2023-04-03T04:43:27;7.50;99.90
13462;DHT22;6803;45.264;5.468;2023-04-03T04:46:05;7.50;99.90
13462;DHT22;6803;45.264;5.468;2023-04-03T04:48:40;7.60;99.90
13462;DHT22;6803;45.264;5.468;2023-04-03T04:51:10;7.60;99.90
13462;DHT22;6803;45.264;5.468;2023-04-03T04:53:42;7.50;99.90
13462;DHT22;6803;45.264;5.468;2023-04-03T04:56:13;7.60;99.90
13462;DHT22;6803;45.264;5.468;2023-04-03T04:58:43;7.60;99.90
13462;DHT22;6803;45.264;5.468;2023-04-03T05:01:14;7.50;99.90
13462;DHT22;6803;45.264;5.468;2023-04-03T05:03:45;7.50;99.90
13462;DHT22;6803;45.264;5.468;2023-04-03T05:06:17;7.50;99.90
13462;DHT22;6803;45.264;5.468;2023-04-03T05:08:47;7.40;99.90
13462;DHT22;6803;45.264;5.468;2023-04-03T05:11:18;7.50;99.90
13462;DHT22;6803;45.264;5.468;2023-04-03T05:13:51;7.50;99.90
13462;DHT22;6803;45.264;5.468;2023-04-03T05:16:21;7.50;99.90
13462;DHT22;6803;45.264;5.468;2023-04-03T05:18:52;7.50;99.90
13462;DHT22;6803;45.264;5.468;2023-04-03T05:21:23;7.50;99.90
13462;DHT22;6803;45.264;5.468;2023-04-03T05:23:55;7.50;99.90
13462;DHT22;6803;45.264;5.468;2023-04-03T05:26:26;7.50;99.90
13462;DHT22;6803;45.264;5.468;2023-04-03T05:28:57;7.40;99.90
13462;DHT22;6803;45.264;5.468;2023-04-03T05:31:28;7.40;99.90
13462;DHT22;6803;45.264;5.468;2023-04-03T05:33:59;7.40;99.90
13462;DHT22;6803;45.264;5.468;2023-04-03T05:36:30;7.40;99.90
13462;DHT22;6803;45.264;5.468;2023-04-03T05:39:01;7.40;99.90
13462;DHT22;6803;45.264;5.468;2023-04-03T05:41:32;7.40;99.90
13462;DHT22;6803;45.264;5.468;2023-04-03T05:44:03;7.40;99.90
13462;DHT22;6803;45.264;5.468;2023-04-03T05:46:34;7.40;99.90
13462;DHT22;6803;45.264;5.468;2023-04-03T05:49:04;7.40;99.90
13462;DHT22;6803;45.264;5.468;2023-04-03T05:51:36;7.40;99.90
13462;DHT22;6803;45.264;5.468;2023-04-03T05:54:10;7.40;99.90
13462;DHT22;6803;45.264;5.468;2023-04-03T05:57:01;7.40;99.90
13462;DHT22;6803;45.264;5.468;2023-04-03T05:59:32;7.40;99.90
13462;DHT22;6803;45.264;5.468;2023-04-03T06:02:03;7.40;99.90
13462;DHT22;6803;45.264;5.468;2023-04-03T06:04:34;7.40;99.90
13462;DHT22;6803;45.264;5.468;2023-04-03T06:07:06;7.40;99.90
13462;DHT22;6803;45.264;5.468;2023-04-03T06:09:37;7.50;99.90
13462;DHT22;6803;45.264;5.468;2023-04-03T06:12:09;7.50;99.90
13462;DHT22;6803;45.264;5.468;2023-04-03T06:14:40;7.50;99.90
13462;DHT22;6803;45.264;5.468;2023-04-03T06:17:11;7.50;99.90
13462;DHT22;6803;45.264;5.468;2023-04-03T06:19:43;7.50;99.90
13462;DHT22;6803;45.264;5.468;2023-04-03T06:22:14;7.60;99.90
13462;DHT22;6803;45.264;5.468;2023-04-03T06:24:45;7.60;99.90
13462;DHT22;6803;45.264;5.468;2023-04-03T06:27:16;7.60;99.90
13462;DHT22;6803;45.264;5.468;2023-04-03T06:29:48;7.70;99.90
13462;DHT22;6803;45.264;5.468;2023-04-03T06:32:20;7.70;99.90
13462;DHT22;6803;45.264;5.468;2023-04-03T06:34:51;7.70;99.90
13462;DHT22;6803;45.264;5.468;2023-04-03T06:37:24;7.70;99.90
13462;DHT22;6803;45.264;5.468;2023-04-03T06:39:57;7.70;99.90
13462;DHT22;6803;45.264;5.468;2023-04-03T06:42:29;7.80;99.90
13462;DHT22;6803;45.264;5.468;2023-04-03T06:45:00;7.80;99.90
13462;DHT22;6803;45.264;5.468;2023-04-03T06:47:31;7.90;99.90
13462;DHT22;6803;45.264;5.468;2023-04-03T06:50:02;7.90;99.90
13462;DHT22;6803;45.264;5.468;2023-04-03T06:52:33;7.90;99.90
13462;DHT22;6803;45.264;5.468;2023-04-03T06:55:04;8.00;99.90
13462;DHT22;6803;45.264;5.468;2023-04-03T06:57:35;8.00;99.90
13462;DHT22;6803;45.264;5.468;2023-04-03T07:00:09;8.00;99.90
13462;DHT22;6803;45.264;5.468;2023-04-03T07:02:41;8.00;99.90
13462;DHT22;6803;45.264;5.468;2023-04-03T07:05:12;8.00;99.90
13462;DHT22;6803;45.264;5.468;2023-04-03T07:07:44;8.10;99.90
13462;DHT22;6803;45.264;5.468;2023-04-03T07:10:15;8.10;99.90
13462;DHT22;6803;45.264;5.468;2023-04-03T07:12:46;8.10;99.90
13462;DHT22;6803;45.264;5.468;2023-04-03T07:15:17;8.20;99.90
13462;DHT22;6803;45.264;5.468;2023-04-03T07:17:47;8.20;99.90
13462;DHT22;6803;45.264;5.468;2023-04-03T07:20:18;8.20;99.90
13462;DHT22;6803;45.264;5.468;2023-04-03T07:22:49;8.20;99.90
13462;DHT22;6803;45.264;5.468;2023-04-03T07:25:20;8.20;99.90
13462;DHT22;6803;45.264;5.468;2023-04-03T07:27:51;8.20;99.90
13462;DHT22;6803;45.264;5.468;2023-04-03T07:30:23;8.20;99.90
13462;DHT22;6803;45.264;5.468;2023-04-03T07:32:54;8.20;99.90
13462;DHT22;6803;45.264;5.468;2023-04-03T07:35:25;8.30;99.90
13462;DHT22;6803;45.264;5.468;2023-04-03T07:37:56;8.30;99.90
13462;DHT22;6803;45.264;5.468;2023-04-03T07:40:27;8.30;99.90
13462;DHT22;6803;45.264;5.468;2023-04-03T07:42:57;8.30;99.90
13462;DHT22;6803;45.264;5.468;2023-04-03T07:45:29;8.20;99.90
13462;DHT22;6803;45.264;5.468;2023-04-03T07:48:01;8.20;99.90
13462;DHT22;6803;45.264;5.468;2023-04-03T07:50:33;8.20;99.90
13462;DHT22;6803;45.264;5.468;2023-04-03T07:53:05;8.10;99.90
13462;DHT22;6803;45.264;5.468;2023-04-03T07:55:37;8.20;99.90
13462;DHT22;6803;45.264;5.468;2023-04-03T07:58:13;8.30;99.90
13462;DHT22;6803;45.264;5.468;2023-04-03T08:00:44;8.30;99.90
13462;DHT22;6803;45.264;5.468;2023-04-03T08:03:16;8.20;99.90
13462;DHT22;6803;45.264;5.468;2023-04-03T08:05:48;8.30;99.90
13462;DHT22;6803;45.264;5.468;2023-04-03T08:08:22;8.30;99.90
13462;DHT22;6803;45.264;5.468;2023-04-03T08:10:54;8.40;99.90
13462;DHT22;6803;45.264;5.468;2023-04-03T08:13:25;8.40;99.90
13462;DHT22;6803;45.264;5.468;2023-04-03T08:15:56;8.50;99.90
13462;DHT22;6803;45.264;5.468;2023-04-03T08:18:28;8.60;99.90
13462;DHT22;6803;45.264;5.468;2023-04-03T08:20:59;8.50;99.90
13462;DHT22;6803;45.264;5.468;2023-04-03T08:23:30;8.70;99.90
13462;DHT22;6803;45.264;5.468;2023-04-03T08:26:05;8.80;99.90
13462;DHT22;6803;45.264;5.468;2023-04-03T08:28:36;8.90;99.90
13462;DHT22;6803;45.264;5.468;2023-04-03T08:31:10;8.90;99.90
13462;DHT22;6803;45.264;5.468;2023-04-03T08:33:41;8.90;99.90
13462;DHT22;6803;45.264;5.468;2023-04-03T08:36:19;8.70;99.90
13462;DHT22;6803;45.264;5.468;2023-04-03T08:38:51;8.70;99.90
13462;DHT22;6803;45.264;5.468;2023-04-03T08:41:26;8.70;99.90
13462;DHT22;6803;45.264;5.468;2023-04-03T08:44:23;8.60;99.90
13462;DHT22;6803;45.264;5.468;2023-04-03T08:47:09;8.60;99.90
13462;DHT22;6803;45.264;5.468;2023-04-03T08:49:40;8.70;99.90
13462;DHT22;6803;45.264;5.468;2023-04-03T08:52:19;8.90;99.90
13462;DHT22;6803;45.264;5.468;2023-04-03T08:54:52;9.10;99.90
13462;DHT22;6803;45.264;5.468;2023-04-03T08:57:29;9.00;99.90
13462;DHT22;6803;45.264;5.468;2023-04-03T09:00:04;9.00;99.90
13462;DHT22;6803;45.264;5.468;2023-04-03T09:02:40;9.20;99.90
13462;DHT22;6803;45.264;5.468;2023-04-03T09:05:14;9.10;99.90
13462;DHT22;6803;45.264;5.468;2023-04-03T09:07:47;9.20;99.90
13462;DHT22;6803;45.264;5.468;2023-04-03T09:13:04;9.40;99.90
13462;DHT22;6803;45.264;5.468;2023-04-03T09:15:36;9.60;99.90
13462;DHT22;6803;45.264;5.468;2023-04-03T09:18:12;9.90;99.90
13462;DHT22;6803;45.264;5.468;2023-04-03T09:20:49;10.00;99.90
13462;DHT22;6803;45.264;5.468;2023-04-03T09:23:26;9.90;99.90
13462;DHT22;6803;45.264;5.468;2023-04-03T09:26:02;10.00;99.90
13462;DHT22;6803;45.264;5.468;2023-04-03T09:28:38;10.20;99.90
13462;DHT22;6803;45.264;5.468;2023-04-03T09:31:18;10.40;99.90
13462;DHT22;6803;45.264;5.468;2023-04-03T09:33:53;10.40;99.90
13462;DHT22;6803;45.264;5.468;2023-04-03T09:36:44;10.40;99.90
13462;DHT22;6803;45.264;5.468;2023-04-03T09:39:18;10.30;99.90
13462;DHT22;6803;45.264;5.468;2023-04-03T09:41:58;10.40;99.90
13462;DHT22;6803;45.264;5.468;2023-04-03T09:44:32;10.50;99.90
13462;DHT22;6803;45.264;5.468;2023-04-03T09:47:19;10.20;99.90
13462;DHT22;6803;45.264;5.468;2023-04-03T09:49:50;10.00;99.90
13462;DHT22;6803;45.264;5.468;2023-04-03T09:52:23;9.90;99.90
13462;DHT22;6803;45.264;5.468;2023-04-03T09:54:54;9.90;99.90
13462;DHT22;6803;45.264;5.468;2023-04-03T09:57:28;10.00;99.90
13462;DHT22;6803;45.264;5.468;2023-04-03T10:00:01;10.00;99.90
13462;DHT22;6803;45.264;5.468;2023-04-03T10:02:39;10.00;99.90
13462;DHT22;6803;45.264;5.468;2023-04-03T10:05:28;10.00;99.90
13462;DHT22;6803;45.264;5.468;2023-04-03T10:08:21;10.00;99.90
13462;DHT22;6803;45.264;5.468;2023-04-03T10:11:13;10.20;99.90
13462;DHT22;6803;45.264;5.468;2023-04-03T10:13:55;10.30;99.90
13462;DHT22;6803;45.264;5.468;2023-04-03T10:16:34;10.30;99.90
13462;DHT22;6803;45.264;5.468;2023-04-03T10:22:06;10.30;99.90
13462;DHT22;6803;45.264;5.468;2023-04-03T10:27:22;10.10;99.90
13462;DHT22;6803;45.264;5.468;2023-04-03T10:29:57;10.20;99.90
13462;DHT22;6803;45.264;5.468;2023-04-03T10:35:25;10.40;99.90
13462;DHT22;6803;45.264;5.468;2023-04-03T10:38:03;10.50;99.90
13462;DHT22;6803;45.264;5.468;2023-04-03T10:40:38;10.60;99.90
13462;DHT22;6803;45.264;5.468;2023-04-03T10:43:14;10.70;99.90
13462;DHT22;6803;45.264;5.468;2023-04-03T10:45:55;11.00;99.90
13462;DHT22;6803;45.264;5.468;2023-04-03T10:48:46;10.90;99.90
13462;DHT22;6803;45.264;5.468;2023-04-03T10:51:23;10.90;99.90
13462;DHT22;6803;45.264;5.468;2023-04-03T10:54:00;11.10;99.90
13462;DHT22;6803;45.264;5.468;2023-04-03T10:56:35;10.90;99.90
13462;DHT22;6803;45.264;5.468;2023-04-03T10:59:15;11.00;99.90
13462;DHT22;6803;45.264;5.468;2023-04-03T11:01:49;11.10;99.90
13462;DHT22;6803;45.264;5.468;2023-04-03T11:04:22;11.20;99.90
13462;DHT22;6803;45.264;5.468;2023-04-03T11:06:57;11.20;99.90
13462;DHT22;6803;45.264;5.468;2023-04-03T11:09:31;11.10;99.90
13462;DHT22;6803;45.264;5.468;2023-04-03T11:12:06;11.00;99.90
13462;DHT22;6803;45.264;5.468;2023-04-03T11:14:39;10.90;99.90
13462;DHT22;6803;45.264;5.468;2023-04-03T11:17:26;10.80;99.90
13462;DHT22;6803;45.264;5.468;2023-04-03T11:20:05;10.80;99.90
13462;DHT22;6803;45.264;5.468;2023-04-03T11:22:39;10.80;99.90
13462;DHT22;6803;45.264;5.468;2023-04-03T11:25:17;10.50;99.90
13462;DHT22;6803;45.264;5.468;2023-04-03T11:27:55;10.60;99.90
13462;DHT22;6803;45.264;5.468;2023-04-03T11:30:30;10.60;99.90
13462;DHT22;6803;45.264;5.468;2023-04-03T11:33:13;10.60;99.90
13462;DHT22;6803;45.264;5.468;2023-04-03T11:35:46;10.50;99.90
13462;DHT22;6803;45.264;5.468;2023-04-03T11:38:22;10.60;99.90
13462;DHT22;6803;45.264;5.468;2023-04-03T11:40:55;10.70;99.90
13462;DHT22;6803;45.264;5.468;2023-04-03T11:43:28;10.60;99.90
13462;DHT22;6803;45.264;5.468;2023-04-03T11:46:01;10.70;99.90
13462;DHT22;6803;45.264;5.468;2023-04-03T11:48:51;10.40;99.90
13462;DHT22;6803;45.264;5.468;2023-04-03T11:51:41;10.50;99.90
13462;DHT22;6803;45.264;5.468;2023-04-03T11:57:50;10.70;99.90
13462;DHT22;6803;45.264;5.468;2023-04-03T12:00:48;10.80;99.90
13462;DHT22;6803;45.264;5.468;2023-04-03T12:04:05;11.10;99.90
13462;DHT22;6803;45.264;5.468;2023-04-03T12:10:17;10.90;99.90
13462;DHT22;6803;45.264;5.468;2023-04-03T12:13:12;10.70;99.90
13462;DHT22;6803;45.264;5.468;2023-04-03T12:15:55;10.80;99.90
13462;DHT22;6803;45.264;5.468;2023-04-03T12:18:59;10.90;99.90
13462;DHT22;6803;45.264;5.468;2023-04-03T12:24:55;10.70;99.90
13462;DHT22;6803;45.264;5.468;2023-04-03T12:27:33;10.60;99.90
13462;DHT22;6803;45.264;5.468;2023-04-03T12:30:14;10.70;99.90
13462;DHT22;6803;45.264;5.468;2023-04-03T12:32:57;10.40;99.90
13462;DHT22;6803;45.264;5.468;2023-04-03T12:35:35;10.60;99.90
13462;DHT22;6803;45.264;5.468;2023-04-03T12:38:41;10.60;99.90
13462;DHT22;6803;45.264;5.468;2023-04-03T12:41:27;10.40;99.90
13462;DHT22;6803;45.264;5.468;2023-04-03T12:44:11;10.20;99.90
13462;DHT22;6803;45.264;5.468;2023-04-03T12:46:43;10.60;99.90
13462;DHT22;6803;45.264;5.468;2023-04-03T12:49:33;10.70;99.90
13462;DHT22;6803;45.264;5.468;2023-04-03T12:52:06;10.30;99.90
13462;DHT22;6803;45.264;5.468;2023-04-03T12:54:51;10.40;99.90
13462;DHT22;6803;45.264;5.468;2023-04-03T13:00:19;10.30;99.90
13462;DHT22;6803;45.264;5.468;2023-04-03T13:02:50;10.30;99.90
13462;DHT22;6803;45.264;5.468;2023-04-03T13:05:22;10.40;99.90
13462;DHT22;6803;45.264;5.468;2023-04-03T13:07:57;10.60;99.90
13462;DHT22;6803;45.264;5.468;2023-04-03T13:10:29;10.50;99.90
13462;DHT22;6803;45.264;5.468;2023-04-03T13:13:07;10.40;99.90
13462;DHT22;6803;45.264;5.468;2023-04-03T13:15:44;10.60;99.90
13462;DHT22;6803;45.264;5.468;2023-04-03T13:18:27;10.80;99.90
13462;DHT22;6803;45.264;5.468;2023-04-03T13:21:02;10.90;99.90
13462;DHT22;6803;45.264;5.468;2023-04-03T13:23:36;10.80;99.90
13462;DHT22;6803;45.264;5.468;2023-04-03T13:26:08;10.60;99.90
13462;DHT22;6803;45.264;5.468;2023-04-03T13:28:40;10.90;99.90
13462;DHT22;6803;45.264;5.468;2023-04-03T13:31:19;11.20;99.90
13462;DHT22;6803;45.264;5.468;2023-04-03T13:33:57;11.10;99.90
13462;DHT22;6803;45.264;5.468;2023-04-03T13:39:22;10.60;99.90
13462;DHT22;6803;45.264;5.468;2023-04-03T13:41:54;10.70;99.90
13462;DHT22;6803;45.264;5.468;2023-04-03T13:44:33;11.00;99.90
13462;DHT22;6803;45.264;5.468;2023-04-03T13:47:15;10.80;99.90
13462;DHT22;6803;45.264;5.468;2023-04-03T13:50:00;11.00;99.90
13462;DHT22;6803;45.264;5.468;2023-04-03T13:52:32;10.60;99.90
13462;DHT22;6803;45.264;5.468;2023-04-03T13:57:52;11.10;99.90
13462;DHT22;6803;45.264;5.468;2023-04-03T14:00:37;11.00;99.90
13462;DHT22;6803;45.264;5.468;2023-04-03T14:03:18;10.60;99.90
13462;DHT22;6803;45.264;5.468;2023-04-03T14:05:50;10.50;99.90
13462;DHT22;6803;45.264;5.468;2023-04-03T14:08:21;10.60;99.90
13462;DHT22;6803;45.264;5.468;2023-04-03T14:10:54;10.90;99.90
13462;DHT22;6803;45.264;5.468;2023-04-03T14:13:25;10.60;99.90
13462;DHT22;6803;45.264;5.468;2023-04-03T14:15:56;10.50;99.90
13462;DHT22;6803;45.264;5.468;2023-04-03T14:18:28;10.70;99.90
13462;DHT22;6803;45.264;5.468;2023-04-03T14:20:59;10.70;99.90
13462;DHT22;6803;45.264;5.468;2023-04-03T14:23:30;10.60;99.90
13462;DHT22;6803;45.264;5.468;2023-04-03T14:26:02;10.70;99.90
13462;DHT22;6803;45.264;5.468;2023-04-03T14:28:33;10.70;99.90
13462;DHT22;6803;45.264;5.468;2023-04-03T14:31:04;10.70;99.90
13462;DHT22;6803;45.264;5.468;2023-04-03T14:33:35;10.50;99.90
13462;DHT22;6803;45.264;5.468;2023-04-03T14:36:12;11.10;99.90
13462;DHT22;6803;45.264;5.468;2023-04-03T14:38:45;11.00;99.90
13462;DHT22;6803;45.264;5.468;2023-04-03T14:41:17;10.50;99.90
13462;DHT22;6803;45.264;5.468;2023-04-03T14:43:50;11.10;99.90
13462;DHT22;6803;45.264;5.468;2023-04-03T14:49:01;11.10;99.90
13462;DHT22;6803;45.264;5.468;2023-04-03T14:51:32;10.70;99.90
13462;DHT22;6803;45.264;5.468;2023-04-03T14:54:03;10.80;99.90
13462;DHT22;6803;45.264;5.468;2023-04-03T14:56:34;10.90;99.90
13462;DHT22;6803;45.264;5.468;2023-04-03T14:59:08;11.10;99.90
13462;DHT22;6803;45.264;5.468;2023-04-03T15:01:40;11.40;99.90
13462;DHT22;6803;45.264;5.468;2023-04-03T15:04:13;11.70;99.90
13462;DHT22;6803;45.264;5.468;2023-04-03T15:06:45;11.40;99.90
13462;DHT22;6803;45.264;5.468;2023-04-03T15:09:21;11.60;99.90
13462;DHT22;6803;45.264;5.468;2023-04-03T15:11:54;11.70;99.90
13462;DHT22;6803;45.264;5.468;2023-04-03T15:14:25;11.30;99.90
13462;DHT22;6803;45.264;5.468;2023-04-03T15:16:57;11.30;99.90
13462;DHT22;6803;45.264;5.468;2023-04-03T15:19:28;11.40;99.90
13462;DHT22;6803;45.264;5.468;2023-04-03T15:21:59;11.30;99.90
13462;DHT22;6803;45.264;5.468;2023-04-03T15:24:30;10.70;99.90
13462;DHT22;6803;45.264;5.468;2023-04-03T15:27:02;10.90;99.90
13462;DHT22;6803;45.264;5.468;2023-04-03T15:29:33;11.30;99.90
13462;DHT22;6803;45.264;5.468;2023-04-03T15:32:04;11.80;99.90
13462;DHT22;6803;45.264;5.468;2023-04-03T15:34:35;11.90;99.90
13462;DHT22;6803;45.264;5.468;2023-04-03T15:37:06;11.50;99.90
13462;DHT22;6803;45.264;5.468;2023-04-03T15:39:37;11.90;99.90
13462;DHT22;6803;45.264;5.468;2023-04-03T15:42:08;12.00;99.90
13462;DHT22;6803;45.264;5.468;2023-04-03T15:44:39;11.80;99.90
13462;DHT22;6803;45.264;5.468;2023-04-03T15:47:10;11.80;99.90
13462;DHT22;6803;45.264;5.468;2023-04-03T15:49:41;11.70;99.90
13462;DHT22;6803;45.264;5.468;2023-04-03T15:52:12;11.60;99.90
13462;DHT22;6803;45.264;5.468;2023-04-03T15:54:43;11.50;99.90
13462;DHT22;6803;45.264;5.468;2023-04-03T15:57:13;11.60;99.90
13462;DHT22;6803;45.264;5.468;2023-04-03T15:59:44;11.30;99.90
13462;DHT22;6803;45.264;5.468;2023-04-03T16:02:15;11.20;99.90
13462;DHT22;6803;45.264;5.468;2023-04-03T16:04:46;11.00;99.90
13462;DHT22;6803;45.264;5.468;2023-04-03T16:07:17;11.00;99.90
13462;DHT22;6803;45.264;5.468;2023-04-03T16:09:48;10.80;99.90
13462;DHT22;6803;45.264;5.468;2023-04-03T16:12:19;10.60;99.90
13462;DHT22;6803;45.264;5.468;2023-04-03T16:14:50;10.50;99.90
13462;DHT22;6803;45.264;5.468;2023-04-03T16:17:21;10.40;99.90
13462;DHT22;6803;45.264;5.468;2023-04-03T16:19:52;10.40;99.90
13462;DHT22;6803;45.264;5.468;2023-04-03T16:22:26;10.40;99.90
13462;DHT22;6803;45.264;5.468;2023-04-03T16:24:58;10.30;99.90
13462;DHT22;6803;45.264;5.468;2023-04-03T16:27:28;10.20;99.90
13462;DHT22;6803;45.264;5.468;2023-04-03T16:30:00;10.10;99.90
13462;DHT22;6803;45.264;5.468;2023-04-03T16:32:31;10.10;99.90
13462;DHT22;6803;45.264;5.468;2023-04-03T16:35:02;10.10;99.90
13462;DHT22;6803;45.264;5.468;2023-04-03T16:37:33;10.10;99.90
13462;DHT22;6803;45.264;5.468;2023-04-03T16:40:07;10.00;99.90
13462;DHT22;6803;45.264;5.468;2023-04-03T16:42:38;10.00;99.90
13462;DHT22;6803;45.264;5.468;2023-04-03T16:45:10;10.00;99.90
13462;DHT22;6803;45.264;5.468;2023-04-03T16:47:41;10.00;99.90
13462;DHT22;6803;45.264;5.468;2023-04-03T16:50:12;10.00;99.90
13462;DHT22;6803;45.264;5.468;2023-04-03T16:52:45;10.00;99.90
13462;DHT22;6803;45.264;5.468;2023-04-03T16:55:16;10.00;99.90
13462;DHT22;6803;45.264;5.468;2023-04-03T16:57:47;9.90;99.90
13462;DHT22;6803;45.264;5.468;2023-04-03T17:00:19;9.90;99.90
13462;DHT22;6803;45.264;5.468;2023-04-03T17:02:50;9.80;99.90
13462;DHT22;6803;45.264;5.468;2023-04-03T17:05:21;9.70;99.90
13462;DHT22;6803;45.264;5.468;2023-04-03T17:07:53;9.70;99.90
13462;DHT22;6803;45.264;5.468;2023-04-03T17:10:24;9.60;99.90